Time;durP1;ratioP1;P1;durP2;ratioP2;P2;SDS_P1;SDS_P2;PMS_P1;PMS_P2;Temp;Humidity;BMP_temperature;BMP_pressure;BME280_temperature;BME280_humidity;BME280_pressure;Samples;Min_cycle;Max_cycle;Signal;HPM_P1;HPM_P2
2021/03/30 00:00:22;;;;;;;33.88;17.88;;;9.80;88.70;;;;;;5092841;28;20059;-68
2021/03/30 00:02:47;;;;;;;34.80;17.92;;;9.90;89.20;;;;;;5093562;28;20028;-69
2021/03/30 00:05:13;;;;;;;36.47;16.73;;;9.80;89.00;;;;;;5074693;28;20373;-68
2021/03/30 00:07:39;;;;;;;30.33;16.95;;;9.90;88.70;;;;;;5092219;28;20085;-69
2021/03/30 00:10:07;;;;;;;39.33;19.08;;;9.80;88.40;;;;;;5057250;28;20036;-70
2021/03/30 00:12:33;;;;;;;37.88;18.83;;;9.80;88.80;;;;;;5091299;28;20040;-70
2021/03/30 00:14:58;;;;;;;36.25;19.63;;;9.80;89.20;;;;;;5091885;28;20122;-71
2021/03/30 00:17:24;;;;;;;39.20;19.23;;;9.80;89.30;;;;;;5091400;28;20032;-70
2021/03/30 00:19:50;;;;;;;38.47;20.88;;;9.80;89.10;;;;;;5091960;28;20047;-70
2021/03/30 00:22:15;;;;;;;36.40;19.58;;;9.90;89.20;;;;;;5091534;28;20063;-70
2021/03/30 00:24:41;;;;;;;38.60;20.83;;;9.90;89.20;;;;;;5073203;28;20461;-70
2021/03/30 00:27:07;;;;;;;37.05;20.17;;;9.80;89.30;;;;;;5073596;28;20040;-70
2021/03/30 00:29:42;;;;;;;37.13;20.30;;;9.80;89.60;;;;;;5091641;28;20119;-69
2021/03/30 00:32:12;;;;;;;33.58;19.63;;;9.90;89.60;;;;;;5073474;28;20128;-71
2021/03/30 00:34:39;;;;;;;36.33;18.70;;;9.90;89.80;;;;;;5091256;28;20062;-70
2021/03/30 00:37:06;;;;;;;35.30;19.52;;;9.90;89.60;;;;;;5090927;28;20503;-65
2021/03/30 00:39:32;;;;;;;35.00;18.88;;;9.90;89.80;;;;;;5091826;28;20074;-65
2021/03/30 00:41:58;;;;;;;34.20;18.52;;;9.90;89.80;;;;;;5090533;28;20059;-65
2021/03/30 00:44:24;;;;;;;32.78;17.75;;;10.00;89.50;;;;;;5091467;28;20050;-65
2021/03/30 00:46:51;;;;;;;35.63;19.40;;;9.90;89.30;;;;;;5091208;28;20052;-65
2021/03/30 00:49:19;;;;;;;38.28;18.35;;;9.90;89.30;;;;;;5073178;28;20031;-65
2021/03/30 00:51:48;;;;;;;34.83;17.10;;;9.90;89.40;;;;;;5091868;28;20043;-66
2021/03/30 00:54:46;;;;;;;33.90;16.48;;;9.90;89.70;;;;;;5093042;28;20047;-68
2021/03/30 00:57:13;;;;;;;35.15;16.42;;;9.90;90.00;;;;;;5093152;28;20040;-65
2021/03/30 00:59:39;;;;;;;35.40;15.88;;;9.90;89.80;;;;;;5075105;28;20040;-67
2021/03/30 01:02:05;;;;;;;26.60;14.35;;;9.90;89.80;;;;;;5092437;28;20096;-67
2021/03/30 01:04:31;;;;;;;28.85;14.23;;;9.90;89.70;;;;;;5093465;28;20133;-66
2021/03/30 01:06:57;;;;;;;27.77;13.30;;;9.90;89.60;;;;;;5073385;28;20056;-66
2021/03/30 01:09:36;;;;;;;29.15;12.60;;;9.90;89.30;;;;;;5091199;28;20117;-66
2021/03/30 01:12:22;;;;;;;25.60;12.30;;;9.90;89.00;;;;;;5072082;28;20032;-67
2021/03/30 01:14:52;;;;;;;26.67;12.23;;;9.80;89.00;;;;;;5090936;28;20133;-66
2021/03/30 01:17:38;;;;;;;27.73;11.05;;;9.80;89.00;;;;;;5072626;28;20040;-66
2021/03/30 01:20:12;;;;;;;24.00;11.43;;;9.80;88.80;;;;;;5090004;28;20048;-66
2021/03/30 01:23:06;;;;;;;28.75;12.00;;;9.80;88.60;;;;;;5090688;28;20036;-66
2021/03/30 01:25:36;;;;;;;26.13;12.03;;;9.70;88.20;;;;;;5090679;28;20036;-65
2021/03/30 01:28:08;;;;;;;25.60;11.13;;;9.70;88.30;;;;;;5090854;28;20032;-66
2021/03/30 01:30:35;;;;;;;25.42;11.93;;;9.60;88.30;;;;;;5090321;28;20039;-65
2021/03/30 01:33:08;;;;;;;26.27;11.77;;;9.60;88.20;;;;;;5090714;28;20028;-66
2021/03/30 01:35:36;;;;;;;31.05;12.30;;;9.50;88.10;;;;;;5090408;28;20080;-66
2021/03/30 01:38:03;;;;;;;27.65;11.55;;;9.50;88.20;;;;;;5090745;28;20032;-66
2021/03/30 01:40:32;;;;;;;25.03;11.07;;;9.40;88.10;;;;;;5089878;28;20492;-65
2021/03/30 01:43:00;;;;;;;26.35;11.48;;;9.40;88.30;;;;;;5072216;28;20032;-66
2021/03/30 01:45:28;;;;;;;24.07;11.30;;;9.40;88.20;;;;;;5090488;28;20036;-66
2021/03/30 01:47:55;;;;;;;25.13;11.50;;;9.40;88.40;;;;;;5090343;28;20036;-66
2021/03/30 01:50:21;;;;;;;25.87;11.57;;;9.40;88.20;;;;;;5090300;28;20036;-66
2021/03/30 01:52:48;;;;;;;25.60;11.70;;;9.40;88.00;;;;;;5089992;28;20555;-66
2021/03/30 01:55:15;;;;;;;29.23;12.13;;;9.30;88.00;;;;;;5072540;28;20040;-66
2021/03/30 01:57:47;;;;;;;27.70;11.37;;;9.30;88.10;;;;;;5090475;28;20078;-66
2021/03/30 02:00:15;;;;;;;28.37;11.97;;;9.30;88.00;;;;;;5090363;28;20051;-66
2021/03/30 02:02:43;;;;;;;28.73;12.00;;;9.30;88.00;;;;;;5072270;28;20488;-67
2021/03/30 02:05:10;;;;;;;25.33;11.10;;;9.30;88.00;;;;;;5090248;28;20032;-65
2021/03/30 02:07:36;;;;;;;24.02;11.02;;;9.20;88.00;;;;;;5090125;28;20226;-66
2021/03/30 02:10:09;;;;;;;25.90;10.90;;;9.20;88.00;;;;;;5089795;28;20063;-66
2021/03/30 02:12:40;;;;;;;25.37;11.13;;;9.20;87.90;;;;;;5074548;28;20040;-67
2021/03/30 02:15:08;;;;;;;24.00;11.55;;;9.10;87.80;;;;;;5095600;28;20122;-66
2021/03/30 02:17:37;;;;;;;24.70;11.37;;;9.10;87.70;;;;;;5094321;28;20036;-66
2021/03/30 02:20:27;;;;;;;26.30;12.07;;;9.10;87.90;;;;;;5094933;28;20492;-66
2021/03/30 02:23:05;;;;;;;25.98;11.18;;;9.10;88.40;;;;;;5094590;28;20107;-66
2021/03/30 02:25:31;;;;;;;33.53;12.50;;;9.00;88.10;;;;;;5094936;28;20123;-66
2021/03/30 02:28:03;;;;;;;30.57;11.50;;;9.10;88.00;;;;;;5094433;28;20046;-66
2021/03/30 02:30:32;;;;;;;29.10;11.70;;;9.10;88.10;;;;;;5094348;28;20063;-66
2021/03/30 02:32:58;;;;;;;24.47;12.17;;;9.00;87.90;;;;;;5093585;28;20037;-66
2021/03/30 02:35:25;;;;;;;28.27;12.37;;;9.00;87.80;;;;;;5094097;28;20480;-66
2021/03/30 02:37:52;;;;;;;27.07;12.57;;;9.00;87.90;;;;;;5093823;28;20145;-66
2021/03/30 02:40:21;;;;;;;27.40;12.37;;;9.00;88.00;;;;;;5093708;28;20047;-66
2021/03/30 02:42:48;;;;;;;22.43;11.53;;;9.00;88.00;;;;;;5093792;28;20031;-66
2021/03/30 02:45:23;;;;;;;26.60;12.10;;;8.90;87.90;;;;;;5093060;28;20132;-66
2021/03/30 02:47:50;;;;;;;29.20;12.07;;;8.90;88.00;;;;;;5088428;22;20040;-68
2021/03/30 02:50:16;;;;;;;21.80;10.60;;;8.90;87.80;;;;;;5073204;28;20047;-68
2021/03/30 02:52:44;;;;;;;23.77;10.93;;;8.90;88.50;;;;;;5073584;28;20033;-68
2021/03/30 02:55:11;;;;;;;26.10;10.50;;;8.90;88.40;;;;;;5055473;28;20041;-68
2021/03/30 02:57:39;;;;;;;21.73;10.30;;;9.00;88.30;;;;;;5055747;28;20033;-68
2021/03/30 03:00:10;;;;;;;23.30;10.23;;;9.00;87.90;;;;;;5019060;28;20110;-68
2021/03/30 03:02:37;;;;;;;26.73;10.63;;;9.00;88.20;;;;;;5053146;28;20032;-68
2021/03/30 03:05:03;;;;;;;25.13;9.87;;;9.00;88.00;;;;;;5053527;28;20473;-68
2021/03/30 03:07:29;;;;;;;21.47;10.53;;;9.00;88.00;;;;;;5052685;28;20099;-68
2021/03/30 03:09:56;;;;;;;23.23;9.93;;;9.00;87.70;;;;;;5053351;28;20493;-68
2021/03/30 03:12:22;;;;;;;23.90;10.00;;;8.90;87.60;;;;;;5052978;28;20091;-68
2021/03/30 03:14:49;;;;;;;19.67;8.87;;;8.90;87.40;;;;;;5052987;28;20036;-68
2021/03/30 03:17:15;;;;;;;17.40;8.90;;;8.90;87.20;;;;;;5035800;28;20061;-68
2021/03/30 03:19:42;;;;;;;22.33;9.63;;;8.80;87.00;;;;;;5052692;28;20036;-68
2021/03/30 03:22:08;;;;;;;23.50;9.70;;;8.80;87.10;;;;;;5052933;28;20055;-68
2021/03/30 03:24:34;;;;;;;21.17;9.23;;;8.80;87.10;;;;;;5052900;28;20048;-68
2021/03/30 03:27:03;;;;;;;20.43;8.20;;;8.70;87.20;;;;;;5052387;28;20040;-68
2021/03/30 03:29:29;;;;;;;20.43;8.40;;;8.70;87.30;;;;;;5018776;28;20548;-68
2021/03/30 03:31:55;;;;;;;20.20;8.83;;;8.60;87.20;;;;;;5052259;28;20040;-68
2021/03/30 03:34:21;;;;;;;21.73;8.90;;;8.60;87.20;;;;;;5035230;28;20489;-68
2021/03/30 03:36:49;;;;;;;20.67;8.77;;;8.60;87.20;;;;;;5034988;28;20060;-68
2021/03/30 03:39:19;;;;;;;20.03;8.60;;;8.60;87.20;;;;;;5034329;28;20048;-68
2021/03/30 03:41:45;;;;;;;25.40;9.40;;;8.60;87.10;;;;;;5034609;28;20032;-68
2021/03/30 03:44:12;;;;;;;22.47;8.87;;;8.50;87.20;;;;;;5034442;28;20036;-68
2021/03/30 03:46:38;;;;;;;19.47;8.60;;;8.50;87.10;;;;;;5052494;28;20052;-67
2021/03/30 03:49:05;;;;;;;20.43;9.03;;;8.40;87.10;;;;;;5052550;28;20040;-68
2021/03/30 03:51:35;;;;;;;19.57;8.43;;;8.40;86.90;;;;;;5052028;28;20040;-67
2021/03/30 03:54:05;;;;;;;21.60;7.97;;;8.40;87.10;;;;;;5052397;28;20041;-67
2021/03/30 03:56:38;;;;;;;19.27;8.38;;;8.40;87.20;;;;;;5052035;28;20071;-67
2021/03/30 03:59:12;;;;;;;23.60;8.43;;;8.40;87.20;;;;;;5052003;28;20037;-67
2021/03/30 04:01:57;;;;;;;19.03;7.97;;;8.40;87.20;;;;;;5051584;28;20123;-67
2021/03/30 04:04:31;;;;;;;16.73;7.70;;;8.30;87.00;;;;;;5010769;28;20037;-68
2021/03/30 04:07:02;;;;;;;17.30;7.63;;;8.30;87.00;;;;;;5052031;28;20037;-68
2021/03/30 04:09:30;;;;;;;19.77;8.37;;;8.40;87.10;;;;;;5052056;28;20041;-67
2021/03/30 04:11:58;;;;;;;19.00;7.77;;;8.30;86.90;;;;;;5049365;28;20072;-67
2021/03/30 04:14:25;;;;;;;21.73;8.47;;;8.30;86.80;;;;;;5048034;28;20044;-67
2021/03/30 04:16:51;;;;;;;23.13;8.03;;;8.20;86.70;;;;;;5051465;28;20481;-67
2021/03/30 04:19:17;;;;;;;18.90;8.13;;;8.20;86.90;;;;;;5050620;28;20067;-67
2021/03/30 04:21:43;;;;;;;22.60;7.80;;;8.20;86.80;;;;;;5050634;28;20509;-67
2021/03/30 04:24:09;;;;;;;17.90;8.27;;;8.20;86.60;;;;;;5051864;28;20049;-68
2021/03/30 04:26:40;;;;;;;19.97;8.50;;;8.10;86.80;;;;;;5051853;28;20055;-67
2021/03/30 04:29:06;;;;;;;19.63;7.95;;;8.10;86.80;;;;;;5049981;28;20037;-68
2021/03/30 04:31:33;;;;;;;19.03;7.60;;;8.10;86.60;;;;;;5049606;28;20052;-67
2021/03/30 04:33:58;;;;;;;18.50;7.67;;;8.00;86.80;;;;;;5051217;28;20045;-67
2021/03/30 04:36:24;;;;;;;17.20;7.70;;;8.00;87.00;;;;;;5049623;28;20048;-67
2021/03/30 04:38:54;;;;;;;23.60;8.23;;;8.10;87.00;;;;;;5051631;28;20033;-67
2021/03/30 04:41:19;;;;;;;18.87;8.10;;;8.00;86.90;;;;;;5050470;28;20045;-68
2021/03/30 04:43:45;;;;;;;19.77;7.90;;;8.00;87.40;;;;;;5050064;28;20049;-67
2021/03/30 04:46:11;;;;;;;17.77;7.80;;;8.00;86.90;;;;;;5049712;28;20433;-68
2021/03/30 04:48:37;;;;;;;19.47;8.07;;;8.00;86.90;;;;;;5051000;28;20493;-68
2021/03/30 04:51:03;;;;;;;20.83;8.23;;;8.00;86.80;;;;;;5049356;28;20101;-67
2021/03/30 04:53:28;;;;;;;20.23;7.50;;;8.00;86.80;;;;;;5051163;28;20060;-67
2021/03/30 04:55:54;;;;;;;21.50;7.80;;;8.00;86.80;;;;;;5050128;28;20545;-67
2021/03/30 04:58:20;;;;;;;17.63;7.90;;;7.90;86.80;;;;;;5051496;28;20055;-67
2021/03/30 05:00:46;;;;;;;22.93;8.20;;;8.00;86.90;;;;;;5050527;28;20048;-68
2021/03/30 05:03:14;;;;;;;22.17;7.77;;;8.00;87.00;;;;;;5050785;28;20516;-68
2021/03/30 05:05:40;;;;;;;19.87;7.50;;;8.00;87.00;;;;;;5033355;28;20044;-68
2021/03/30 05:08:06;;;;;;;21.97;8.53;;;8.00;87.10;;;;;;5051450;28;20408;-68
2021/03/30 05:10:32;;;;;;;19.10;8.00;;;8.00;87.10;;;;;;5050060;28;20033;-68
2021/03/30 05:12:57;;;;;;;18.43;7.93;;;8.00;87.10;;;;;;5051055;28;20129;-68
2021/03/30 05:15:23;;;;;;;19.23;7.83;;;8.00;86.90;;;;;;5051463;28;20120;-68
2021/03/30 05:17:48;;;;;;;19.70;8.17;;;8.10;86.90;;;;;;5049372;28;20043;-68
2021/03/30 05:20:14;;;;;;;18.70;7.47;;;8.10;86.90;;;;;;5051212;28;20033;-68
2021/03/30 05:22:40;;;;;;;21.30;8.57;;;8.10;86.90;;;;;;5050705;28;20483;-68
2021/03/30 05:25:08;;;;;;;19.13;8.87;;;8.10;86.90;;;;;;5050826;28;20127;-68
2021/03/30 05:27:35;;;;;;;18.87;8.50;;;8.20;86.90;;;;;;5050508;28;20025;-67
2021/03/30 05:30:02;;;;;;;22.40;8.53;;;8.20;86.90;;;;;;5050552;28;20036;-68
2021/03/30 05:32:27;;;;;;;19.33;7.90;;;8.30;87.10;;;;;;5033575;28;20048;-67
2021/03/30 05:34:53;;;;;;;21.57;8.63;;;8.40;87.20;;;;;;5051190;28;20029;-67
2021/03/30 05:37:19;;;;;;;17.60;8.17;;;8.50;87.10;;;;;;5050245;28;20060;-68
2021/03/30 05:39:45;;;;;;;17.50;7.70;;;8.50;86.80;;;;;;5051118;28;20119;-67
2021/03/30 05:42:17;;;;;;;17.67;7.67;;;8.60;86.70;;;;;;5050918;28;20037;-67
2021/03/30 05:44:43;;;;;;;18.20;7.30;;;8.60;86.70;;;;;;5050734;28;20037;-68
2021/03/30 05:47:13;;;;;;;17.43;8.10;;;8.70;86.70;;;;;;5016209;28;20455;-67
2021/03/30 05:49:40;;;;;;;20.97;8.20;;;8.80;86.80;;;;;;5032653;28;20553;-67
2021/03/30 05:52:28;;;;;;;16.73;8.33;;;8.90;86.90;;;;;;5016388;28;20071;-68
2021/03/30 05:54:56;;;;;;;18.57;8.30;;;9.00;86.80;;;;;;5032897;28;20044;-68
2021/03/30 05:57:25;;;;;;;21.60;8.60;;;9.10;86.60;;;;;;5033094;28;20099;-68
2021/03/30 05:59:54;;;;;;;18.13;8.90;;;9.20;86.50;;;;;;5050309;28;20088;-67
2021/03/30 06:02:50;;;;;;;25.00;9.30;;;9.30;86.40;;;;;;5032935;28;20041;-68
2021/03/30 06:05:17;;;;;;;24.60;10.27;;;9.40;86.30;;;;;;5028934;28;20033;-68
2021/03/30 06:07:43;;;;;;;22.05;10.23;;;9.50;86.30;;;;;;5033190;28;20049;-68
2021/03/30 06:10:15;;;;;;;22.73;9.25;;;9.60;86.30;;;;;;5050129;28;20077;-68
2021/03/30 06:12:41;;;;;;;18.55;10.05;;;9.70;86.40;;;;;;5050442;28;20033;-67
2021/03/30 06:15:08;;;;;;;21.80;10.43;;;10.00;86.90;;;;;;5050326;28;20091;-68
2021/03/30 06:17:46;;;;;;;22.95;10.75;;;10.30;86.80;;;;;;5032162;28;20029;-67
2021/03/30 06:20:15;;;;;;;23.88;10.25;;;10.70;87.30;;;;;;5050084;28;20033;-67
2021/03/30 06:22:59;;;;;;;19.83;9.48;;;11.30;88.60;;;;;;5032099;28;20044;-69
2021/03/30 06:25:49;;;;;;;19.55;9.73;;;12.10;89.50;;;;;;5050173;28;20037;-68
2021/03/30 06:28:25;;;;;;;18.50;9.80;;;13.00;88.10;;;;;;5050397;28;20063;-69
2021/03/30 06:30:59;;;;;;;19.02;9.43;;;13.60;86.20;;;;;;5049530;28;20021;-67
2021/03/30 06:33:26;;;;;;;21.08;9.98;;;14.00;83.30;;;;;;5032558;28;20511;-67
2021/03/30 06:35:52;;;;;;;19.98;9.40;;;14.30;80.70;;;;;;5049512;28;20071;-70
2021/03/30 06:38:18;;;;;;;17.95;9.98;;;14.40;80.10;;;;;;5050267;28;20051;-67
2021/03/30 06:40:46;;;;;;;23.30;10.20;;;14.60;79.70;;;;;;5049282;28;20488;-67
2021/03/30 06:46:08;;;;;;;24.42;9.73;;;14.80;77.40;;;;;;5049821;28;20496;-68
2021/03/30 06:48:34;;;;;;;19.90;10.57;;;15.10;76.80;;;;;;5032532;28;20533;-68
2021/03/30 06:51:26;;;;;;;20.17;9.27;;;15.60;76.90;;;;;;5049544;28;20040;-68
2021/03/30 06:53:52;;;;;;;18.17;9.43;;;16.40;76.50;;;;;;5028777;28;20409;-67
2021/03/30 06:56:18;;;;;;;17.63;9.10;;;17.20;75.90;;;;;;5050109;28;20041;-67
2021/03/30 06:58:58;;;;;;;21.38;10.23;;;18.20;72.80;;;;;;5051615;28;20052;-67
2021/03/30 07:01:25;;;;;;;15.73;9.23;;;19.20;71.20;;;;;;5035600;28;20032;-67
2021/03/30 07:03:54;;;;;;;16.75;8.50;;;19.90;67.90;;;;;;5053353;28;20506;-67
2021/03/30 07:06:21;;;;;;;17.45;8.23;;;20.70;67.10;;;;;;5053324;28;20041;-70
2021/03/30 07:08:48;;;;;;;16.00;8.10;;;21.70;64.70;;;;;;5035860;28;20455;-68
2021/03/30 07:11:17;;;;;;;17.58;8.32;;;22.50;61.90;;;;;;5053318;28;20489;-69
2021/03/30 07:13:43;;;;;;;14.20;7.82;;;23.10;59.10;;;;;;5035505;28;20041;-68
2021/03/30 07:16:29;;;;;;;15.45;7.90;;;24.00;57.70;;;;;;5053384;28;20064;-68
2021/03/30 07:18:59;;;;;;;15.55;7.70;;;24.60;54.80;;;;;;5033234;28;20083;-68
2021/03/30 07:22:01;;;;;;;16.67;7.10;;;25.00;52.20;;;;;;5033071;28;20115;-67
2021/03/30 07:24:34;;;;;;;14.00;7.15;;;25.10;50.30;;;;;;5015051;28;20111;-67
2021/03/30 07:27:05;;;;;;;13.20;7.18;;;25.30;49.40;;;;;;5026739;28;20037;-68
2021/03/30 07:29:40;;;;;;;12.88;7.07;;;26.30;48.60;;;;;;5052937;28;20504;-68
2021/03/30 07:32:06;;;;;;;12.38;6.03;;;27.30;47.10;;;;;;5053151;28;20036;-68
2021/03/30 07:35:06;;;;;;;14.00;6.60;;;27.90;44.80;;;;;;5034800;28;20047;-68
2021/03/30 07:38:02;;;;;;;14.13;6.32;;;27.70;41.80;;;;;;5053716;28;20045;-68
2021/03/30 07:40:28;;;;;;;14.57;6.28;;;27.40;42.10;;;;;;5072139;28;20036;-69
2021/03/30 07:42:56;;;;;;;13.45;6.70;;;26.90;41.30;;;;;;5071385;28;20032;-68
2021/03/30 07:45:26;;;;;;;11.85;6.28;;;26.90;41.50;;;;;;5072039;28;20115;-69
2021/03/30 07:47:55;;;;;;;13.80;6.20;;;27.50;41.50;;;;;;5071597;28;20428;-69
2021/03/30 07:50:24;;;;;;;14.57;7.43;;;28.60;40.60;;;;;;5053983;28;20040;-69
2021/03/30 07:52:52;;;;;;;11.60;5.97;;;29.60;38.90;;;;;;5036500;28;20405;-68
2021/03/30 07:55:21;;;;;;;12.80;6.28;;;30.10;37.70;;;;;;5070638;28;20062;-69
2021/03/30 07:58:01;;;;;;;13.13;6.43;;;30.40;36.80;;;;;;5052880;28;20135;-68
2021/03/30 08:00:33;;;;;;;12.35;5.88;;;30.50;35.50;;;;;;5071797;28;20047;-68
2021/03/30 08:03:15;;;;;;;14.63;6.60;;;30.00;35.30;;;;;;5071303;28;20051;-70
2021/03/30 08:05:41;;;;;;;14.32;6.07;;;29.80;34.80;;;;;;5071612;28;20032;-72
2021/03/30 08:08:25;;;;;;;12.43;6.30;;;29.70;35.10;;;;;;5046903;28;20088;-70
2021/03/30 08:10:54;;;;;;;15.02;5.85;;;30.00;34.30;;;;;;5032202;28;20378;-70
2021/03/30 08:13:33;;;;;;;14.57;6.00;;;30.20;34.30;;;;;;5033577;28;20037;-69
2021/03/30 08:16:08;;;;;;;13.93;6.43;;;30.70;34.30;;;;;;5051224;28;20086;-68
2021/03/30 08:18:41;;;;;;;12.93;5.90;;;31.60;33.60;;;;;;5051160;28;20033;-68
2021/03/30 08:21:09;;;;;;;9.75;5.75;;;32.30;32.50;;;;;;5032826;28;20056;-69
2021/03/30 08:23:53;;;;;;;12.63;5.63;;;33.00;32.00;;;;;;5051143;28;20041;-68
2021/03/30 08:26:22;;;;;;;11.73;5.88;;;34.00;31.80;;;;;;5071211;28;20043;-69
2021/03/30 08:28:48;;;;;;;11.57;5.45;;;34.70;30.10;;;;;;5071013;28;20082;-69
2021/03/30 08:31:26;;;;;;;13.23;5.82;;;34.90;30.00;;;;;;5053059;28;20036;-69
2021/03/30 08:33:58;;;;;;;10.77;5.40;;;35.20;29.60;;;;;;5070738;28;20136;-71
2021/03/30 08:36:28;;;;;;;11.00;5.47;;;35.80;29.50;;;;;;5068607;28;20047;-68
2021/03/30 08:38:58;;;;;;;11.50;5.63;;;36.20;28.90;;;;;;5032889;28;20036;-70
2021/03/30 08:41:42;;;;;;;9.55;4.95;;;36.50;28.30;;;;;;5050625;28;20667;-69
2021/03/30 08:44:12;;;;;;;11.10;4.88;;;36.90;28.20;;;;;;5050907;28;20392;-70
2021/03/30 08:46:40;;;;;;;12.57;5.10;;;37.40;27.80;;;;;;5079411;22;20059;-73
2021/03/30 08:49:42;;;;;;;11.32;5.30;;;37.90;27.60;;;;;;5070935;28;20055;-73
2021/03/30 08:52:10;;;;;;;12.32;5.15;;;38.30;27.30;;;;;;5089800;28;20177;-68
2021/03/30 08:54:55;;;;;;;13.23;5.32;;;38.40;26.70;;;;;;5072697;28;20039;-70
2021/03/30 08:57:29;;;;;;;11.98;5.10;;;38.40;26.80;;;;;;5089492;28;20043;-69
2021/03/30 08:59:56;;;;;;;9.80;4.45;;;38.90;26.60;;;;;;5090854;28;20488;-70
2021/03/30 09:02:26;;;;;;;9.80;5.57;;;39.70;26.50;;;;;;5090064;28;20039;-73
2021/03/30 09:04:53;;;;;;;12.55;5.05;;;40.60;25.90;;;;;;5072645;28;20036;-74
2021/03/30 09:07:20;;;;;;;9.02;4.78;;;40.50;25.40;;;;;;5079854;28;20500;-74
2021/03/30 09:09:47;;;;;;;8.45;4.70;;;40.40;25.30;;;;;;5070545;28;20048;-74
2021/03/30 09:12:16;;;;;;;10.10;4.25;;;40.50;25.10;;;;;;5052407;28;20033;-74
2021/03/30 09:14:43;;;;;;;10.60;4.60;;;40.70;25.00;;;;;;5051677;28;20029;-73
2021/03/30 09:17:11;;;;;;;9.60;4.85;;;41.20;24.90;;;;;;5070358;28;20037;-75
2021/03/30 09:19:46;;;;;;;9.43;4.68;;;41.70;24.60;;;;;;5069880;28;20447;-74
2021/03/30 09:22:22;;;;;;;9.10;4.25;;;41.80;24.40;;;;;;5032984;28;20044;-75
2021/03/30 09:27:30;;;;;;;8.13;3.67;;;41.10;24.20;;;;;;5052338;28;20048;-69
2021/03/30 09:29:59;;;;;;;9.60;4.40;;;41.50;24.30;;;;;;5035677;28;20043;-69
2021/03/30 09:32:27;;;;;;;9.43;3.88;;;42.20;24.20;;;;;;5070154;28;20123;-70
2021/03/30 09:35:05;;;;;;;10.15;4.65;;;42.80;23.90;;;;;;5069831;28;20044;-69
2021/03/30 09:37:43;;;;;;;9.40;4.70;;;42.60;23.50;;;;;;5069512;28;20037;-68
2021/03/30 09:40:13;;;;;;;8.15;3.95;;;42.00;23.40;;;;;;5075215;28;20039;-69
2021/03/30 09:42:40;;;;;;;8.18;4.57;;;41.90;23.70;;;;;;5072260;28;20036;-69
2021/03/30 09:45:11;;;;;;;8.93;4.20;;;42.20;23.80;;;;;;5090292;28;20419;-70
2021/03/30 09:47:38;;;;;;;10.32;4.32;;;42.10;23.40;;;;;;5077513;28;20072;-69
2021/03/30 09:50:06;;;;;;;10.27;4.30;;;42.40;23.40;;;;;;5069179;28;20534;-69
2021/03/30 09:52:33;;;;;;;10.13;4.30;;;43.00;23.30;;;;;;5069841;28;20032;-69
2021/03/30 09:54:59;;;;;;;10.68;4.60;;;43.10;23.00;;;;;;5051925;28;20021;-69
2021/03/30 09:57:31;;;;;;;10.15;4.28;;;43.10;22.90;;;;;;5069798;28;20025;-69
2021/03/30 09:59:59;;;;;;;8.88;4.05;;;43.30;22.80;;;;;;5070103;28;20488;-70
2021/03/30 10:02:29;;;;;;;6.82;3.88;;;43.00;22.70;;;;;;5069470;28;20048;-69
2021/03/30 10:05:00;;;;;;;8.63;4.05;;;43.10;22.70;;;;;;5069918;28;20032;-70
2021/03/30 10:07:51;;;;;;;9.55;3.60;;;43.40;22.70;;;;;;5068015;28;20036;-74
2021/03/30 10:10:17;;;;;;;9.85;3.72;;;44.00;22.70;;;;;;5063218;28;20041;-74
2021/03/30 10:12:56;;;;;;;7.85;4.10;;;44.10;22.20;;;;;;5069210;28;20037;-73
2021/03/30 10:15:33;;;;;;;10.43;5.18;;;43.90;22.50;;;;;;5069925;28;20087;-74
2021/03/30 10:18:01;;;;;;;6.85;3.05;;;44.20;22.40;;;;;;5068586;28;20189;-74
2021/03/30 10:20:27;;;;;;;9.63;4.55;;;44.20;22.30;;;;;;5069698;28;20039;-74
2021/03/30 10:22:53;;;;;;;8.30;4.38;;;44.70;22.30;;;;;;5069400;28;20032;-74
2021/03/30 10:25:29;;;;;;;9.80;4.35;;;45.10;22.00;;;;;;5069754;28;20106;-73
2021/03/30 10:28:01;;;;;;;8.90;4.35;;;44.10;21.90;;;;;;5067598;28;20370;-74
2021/03/30 10:30:43;;;;;;;8.25;4.45;;;43.80;22.30;;;;;;5069365;28;20048;-73
2021/03/30 10:33:14;;;;;;;8.82;4.30;;;43.90;22.00;;;;;;5069956;28;20035;-74
2021/03/30 10:35:40;;;;;;;7.90;4.15;;;42.90;22.10;;;;;;5073747;28;20399;-74
2021/03/30 10:38:07;;;;;;;8.07;4.20;;;41.90;22.30;;;;;;5055092;28;20281;-72
2021/03/30 10:40:36;;;;;;;8.18;4.07;;;41.80;22.70;;;;;;5073111;28;20041;-74
2021/03/30 10:43:22;;;;;;;9.13;4.50;;;41.90;22.60;;;;;;5072915;28;20403;-73
2021/03/30 10:45:49;;;;;;;9.30;3.80;;;41.40;22.80;;;;;;5073088;28;20033;-75
2021/03/30 10:48:15;;;;;;;8.13;4.03;;;41.50;23.10;;;;;;5072937;28;20037;-73
2021/03/30 10:50:42;;;;;;;7.65;4.03;;;41.70;22.90;;;;;;5072935;28;20086;-74
2021/03/30 10:53:08;;;;;;;7.97;4.53;;;41.10;22.90;;;;;;5072970;28;20123;-73
2021/03/30 10:55:35;;;;;;;9.63;4.32;;;41.20;23.10;;;;;;5072680;28;20403;-73
2021/03/30 10:58:06;;;;;;;9.02;4.00;;;41.30;22.80;;;;;;5072785;28;20025;-73
2021/03/30 11:00:32;;;;;;;8.25;4.40;;;40.50;23.00;;;;;;5072109;28;20098;-73
2021/03/30 11:02:58;;;;;;;8.20;4.35;;;40.20;23.30;;;;;;5071134;28;20037;-73
2021/03/30 11:05:25;;;;;;;8.48;4.22;;;39.60;23.30;;;;;;5072175;28;20488;-73
2021/03/30 11:07:51;;;;;;;7.82;4.10;;;38.70;23.60;;;;;;5072507;28;20066;-73
2021/03/30 11:10:17;;;;;;;8.90;4.10;;;38.30;23.80;;;;;;5073984;28;20120;-67
2021/03/30 11:12:43;;;;;;;7.63;3.85;;;38.00;24.00;;;;;;5083539;28;20032;-71
2021/03/30 11:15:11;;;;;;;9.27;3.83;;;37.30;24.00;;;;;;5093105;28;20454;-74
2021/03/30 11:17:36;;;;;;;10.05;4.95;;;36.30;24.60;;;;;;5092774;28;20122;-73
2021/03/30 11:20:04;;;;;;;9.18;4.28;;;35.50;24.80;;;;;;5092431;28;20071;-75
2021/03/30 11:22:30;;;;;;;8.68;4.45;;;34.80;25.60;;;;;;5074931;28;20496;-72
2021/03/30 11:25:01;;;;;;;7.95;4.25;;;34.10;25.80;;;;;;5092458;28;20071;-74
2021/03/30 11:27:29;;;;;;;9.73;4.43;;;33.50;26.10;;;;;;5092722;28;20067;-74
2021/03/30 11:30:05;;;;;;;10.77;4.65;;;32.60;26.30;;;;;;5092252;28;20032;-73
2021/03/30 11:32:34;;;;;;;10.20;4.85;;;31.10;26.60;;;;;;5092645;28;20039;-73
2021/03/30 11:35:15;;;;;;;9.43;4.95;;;29.20;28.00;;;;;;5092664;28;20078;-72
2021/03/30 11:38:06;;;;;;;8.82;4.50;;;28.20;29.20;;;;;;5092267;28;20036;-73
2021/03/30 11:40:33;;;;;;;8.32;4.55;;;28.30;30.10;;;;;;5091801;28;20046;-72
2021/03/30 11:42:59;;;;;;;10.23;4.65;;;29.60;30.70;;;;;;5092292;28;20055;-73
2021/03/30 11:45:25;;;;;;;8.77;4.00;;;31.10;30.20;;;;;;5092094;28;20461;-72
2021/03/30 11:47:51;;;;;;;9.38;4.70;;;32.50;29.60;;;;;;5091997;28;20499;-73
2021/03/30 11:50:17;;;;;;;10.38;5.00;;;33.30;28.30;;;;;;5092352;28;20032;-72
2021/03/30 11:52:42;;;;;;;9.63;5.70;;;33.30;27.80;;;;;;5091698;28;20036;-73
2021/03/30 11:55:10;;;;;;;9.63;4.70;;;33.10;27.60;;;;;;5074430;28;20459;-72
2021/03/30 11:57:36;;;;;;;8.98;4.50;;;32.80;27.70;;;;;;5092039;28;20060;-74
2021/03/30 12:00:04;;;;;;;8.85;4.47;;;32.40;27.60;;;;;;5091682;28;20052;-74
2021/03/30 12:02:38;;;;;;;7.80;4.63;;;32.10;27.90;;;;;;5092007;28;20131;-73
2021/03/30 12:05:05;;;;;;;10.45;5.00;;;31.90;28.00;;;;;;5091631;28;20034;-75
2021/03/30 12:07:30;;;;;;;9.77;4.50;;;31.90;27.90;;;;;;5091752;28;20066;-72
2021/03/30 12:09:59;;;;;;;8.27;4.30;;;31.40;28.00;;;;;;5091338;28;20032;-73
2021/03/30 12:12:25;;;;;;;6.82;4.20;;;31.60;28.60;;;;;;5073852;28;20029;-73
2021/03/30 12:14:51;;;;;;;7.35;4.10;;;32.30;28.60;;;;;;5092113;28;20392;-73
2021/03/30 12:17:18;;;;;;;8.63;3.72;;;33.30;28.50;;;;;;5091705;28;20032;-73
2021/03/30 12:19:44;;;;;;;7.78;4.03;;;34.20;27.80;;;;;;5091886;28;20540;-74
2021/03/30 12:22:10;;;;;;;8.85;4.45;;;34.40;27.10;;;;;;5091027;28;20181;-73
2021/03/30 12:24:38;;;;;;;9.25;4.47;;;34.50;27.00;;;;;;5091708;28;20122;-72
2021/03/30 12:27:11;;;;;;;8.20;3.97;;;34.40;26.90;;;;;;5091663;28;20036;-73
2021/03/30 12:29:40;;;;;;;7.38;3.78;;;34.40;26.80;;;;;;5091108;28;20030;-73
2021/03/30 12:32:12;;;;;;;7.80;2.80;;;34.10;26.20;;;;;;5091634;28;20384;-74
2021/03/30 12:34:41;;;;;;;7.85;3.30;;;33.00;26.40;;;;;;5091159;28;20059;-73
2021/03/30 12:37:09;;;;;;;7.25;3.60;;;32.40;26.70;;;;;;5073991;28;20043;-72
2021/03/30 12:39:35;;;;;;;7.40;3.28;;;32.00;26.80;;;;;;5091126;28;20522;-75
2021/03/30 12:42:01;;;;;;;7.07;2.75;;;31.70;26.90;;;;;;5091178;28;20124;-73
2021/03/30 12:44:27;;;;;;;7.32;3.33;;;31.40;27.30;;;;;;5091072;28;20047;-71
2021/03/30 12:46:53;;;;;;;6.95;3.47;;;31.50;27.60;;;;;;5090738;28;20407;-73
2021/03/30 12:49:22;;;;;;;7.07;3.22;;;31.40;27.40;;;;;;5091552;28;20127;-73
2021/03/30 12:51:49;;;;;;;7.32;3.20;;;31.20;27.40;;;;;;5072813;28;20109;-73
2021/03/30 12:54:16;;;;;;;8.38;3.50;;;30.90;27.60;;;;;;5091258;28;20074;-73
2021/03/30 12:56:42;;;;;;;8.43;3.75;;;30.70;27.90;;;;;;5090909;28;20119;-73
2021/03/30 12:59:08;;;;;;;8.02;3.38;;;30.40;28.20;;;;;;5090054;28;20044;-74